NCAR-RAP Real-Time Weather Data

Output produced by METARs form (23 February 2020  02:06 UTC)
found at http://weather.rap.ucar.edu/surface/
 
KBOI 230153Z 29004KT 10SM CLR 06/M06 A3006 RMK AO2 SLP196 T00561061 $
KBOI 230053Z 28007KT 10SM CLR 08/M07 A3007 RMK AO2 SLP194 T00831067
KBOI 222353Z 31007KT 10SM CLR 09/M07 A3008 RMK AO2 SLP198 T00941072 10100 20028 56016
KBOI 222253Z 00000KT 10SM CLR 09/M07 A3009 RMK AO2 SLP201 T00941067
KBOI 222153Z 27003KT 10SM CLR 08/M07 A3011 RMK AO2 SLP208 T00831072
KBOI 222053Z 00000KT 10SM CLR 08/M08 A3013 RMK AO2 SLP215 T00831083 58017
KBOI 221953Z 00000KT 10SM CLR 06/M08 A3015 RMK AO2 SLP225 T00611078
KBOI 221853Z 00000KT 10SM CLR 05/M07 A3018 RMK AO2 SLP232 T00501072
KBOI 221753Z 00000KT 10SM CLR 03/M08 A3019 RMK AO2 SLP239 T00281078 10028 21033 51003
KBOI 221653Z 08003KT 10SM CLR 01/M08 A3019 RMK AO2 SLP241 T00111078
KBOI 221553Z 11007KT 10SM CLR M01/M09 A3019 RMK AO2 SLP243 T10061089
KBOI 221453Z 14007KT 10SM CLR M03/M09 A3018 RMK AO2 SLP238 T10281094 58001
KBOI 221353Z 15006KT 10SM CLR M03/M09 A3018 RMK AO2 SLP238 T10331089
KBOI 221253Z 15004KT 10SM CLR M03/M09 A3018 RMK AO2 SLP236 T10331089
KBOI 221153Z 14007KT 10SM CLR M02/M08 A3018 RMK AO2 SLP235 T10221083 10006 21039 57004
KBOI 221053Z 16005KT 10SM CLR M03/M08 A3019 RMK AO2 SLP237 T10331078
KBOI 220953Z 00000KT 10SM CLR M03/M08 A3019 RMK AO2 SLP240 T10281078
KBOI 220853Z 11004KT 10SM CLR M01/M08 A3020 RMK AO2 SLP240 T10111078 56007
KBOI 220753Z 15010KT 10SM CLR M01/M08 A3020 RMK AO2 SLP244 T10061078
KBOI 220653Z 13008KT 10SM CLR 00/M07 A3020 RMK AO2 SLP245 T00001072 400721050
KBOI 220553Z 13008KT 10SM CLR 00/M07 A3022 RMK AO2 SLP251 T00001067 10072 21006 56000
KBOI 220453Z 12004KT 10SM CLR M01/M07 A3022 RMK AO2 SLP254 T10061067
KBOI 220353Z 13005KT 10SM CLR 01/M08 A3022 RMK AO2 SLP254 T00061083
KBOI 220253Z 07003KT 10SM CLR 03/M08 A3022 RMK AO2 SLP253 T00331083 56002
KBOI 220153Z 35004KT 10SM CLR 04/M09 A3022 RMK AO2 SLP253 T00391094
KBOI 220053Z 00000KT 10SM CLR 06/M10 A3022 RMK AO2 SLP249 T00611100
KBOI 212353Z 29003KT 10SM CLR 07/M10 A3022 RMK AO2 SLP251 T00671100 10072 20011 56016
KBOI 212253Z 00000KT 10SM CLR 07/M11 A3024 RMK AO2 SLP255 T00721106
KBOI 212153Z 00000KT 10SM CLR 06/M10 A3025 RMK AO2 SLP261 T00611100
KBOI 212053Z 00000KT 10SM CLR 05/M10 A3028 RMK AO2 SLP270 T00501100 58026
KBOI 211953Z VRB03KT 10SM CLR 03/M09 A3032 RMK AO2 SLP285 T00331094
KBOI 211853Z 00000KT 10SM CLR 02/M10 A3035 RMK AO2 SLP296 T00171100
KBOI 211753Z 00000KT 10SM CLR 01/M09 A3036 RMK AO2 SLP300 T00111094 10011 21050 50002
KBOI 211653Z 07003KT 10SM CLR M01/M09 A3037 RMK AO2 SLP304 T10061094
KBOI 211553Z AUTO 13005KT 10SM CLR M03/M11 A3036 RMK AO2 SLP305 T10281106
KBOI 211453Z 15005KT 10SM CLR M04/M12 A3035 RMK AO2 SLP303 T10441117 58000
KBOI 211353Z 11006KT 10SM CLR M04/M10 A3036 RMK AO2 SLP303 T10441100
KBOI 211253Z 13004KT 10SM CLR M04/M11 A3035 RMK AO2 SLP296 T10391106
KBOI 211153Z 00000KT 10SM CLR M04/M10 A3035 RMK AO2 SLP295 T10391100 11006 21039 58003
KBOI 211053Z 15007KT 10SM CLR M03/M11 A3036 RMK AO2 SLP296 T10331111
KBOI 210953Z 14006KT 10SM CLR M03/M11 A3037 RMK AO2 SLP299 T10331106
KBOI 210853Z 14009KT 10SM CLR M03/M11 A3036 RMK AO2 SLP302 T10281111 56004
KBOI 210753Z 14010KT 10SM CLR M02/M11 A3037 RMK AO2 SLP305 T10221111
KBOI 210653Z 15012KT 10SM CLR M01/M11 A3037 RMK AO2 SLP304 T10111111 400721067
KBOI 210553Z 15013KT 10SM CLR M01/M11 A3038 RMK AO2 SLP311 T10061106 10067 21011 53004
KBOI 210453Z 16008KT 10SM CLR M01/M11 A3037 RMK AO2 SLP308 T10061106
KBOI 210353Z 12009KT 10SM CLR 01/M10 A3036 RMK AO2 SLP306 T00061100
KBOI 210253Z 14009KT 10SM CLR 01/M11 A3036 RMK AO2 SLP307 T00111111 53001